createdAt,value
2022-09-27T00:02:01.856Z,27.75
2022-09-27T00:04:30.065Z,28.42
2022-09-27T00:06:58.676Z,27.25
2022-09-27T00:09:27.329Z,28.33
2022-09-27T00:11:56.853Z,30.15
2022-09-27T00:14:25.166Z,31.95
2022-09-27T00:16:53.210Z,33.10
2022-09-27T00:19:23.921Z,30.95
2022-09-27T00:21:52.496Z,29.02
2022-09-27T00:24:22.386Z,28.25
2022-09-27T00:26:51.103Z,29.88
2022-09-27T00:29:21.231Z,28.70
2022-09-27T00:31:49.560Z,33.90
2022-09-27T00:34:21.192Z,31.58
2022-09-27T00:36:49.841Z,30.85
2022-09-27T00:39:18.230Z,29.60
2022-09-27T00:41:48.021Z,24.95
2022-09-27T00:44:51.227Z,25.95
2022-09-27T00:47:22.988Z,28.77
2022-09-27T00:49:53.558Z,27.00
2022-09-27T00:52:25.551Z,27.73
2022-09-27T00:54:56.359Z,29.42
2022-09-27T00:57:24.754Z,32.70
2022-09-27T00:59:59.323Z,27.90
2022-09-27T01:02:27.956Z,27.63
2022-09-27T01:04:56.737Z,27.83
2022-09-27T01:07:24.906Z,26.27
2022-09-27T01:09:53.098Z,29.45
2022-09-27T01:12:26.960Z,28.98
2022-09-27T01:15:08.302Z,26.90
2022-09-27T01:17:45.697Z,29.83
2022-09-27T01:20:31.383Z,28.27
2022-09-27T01:23:13.898Z,30.52
2022-09-27T01:25:51.722Z,34.90
2022-09-27T01:28:26.131Z,32.42
2022-09-27T01:31:01.426Z,33.90
2022-09-27T01:33:45.124Z,32.45
2022-09-27T01:36:23.162Z,33.53
2022-09-27T01:39:00.078Z,35.45
2022-09-27T01:41:34.903Z,32.97
2022-09-27T01:44:08.477Z,32.08
2022-09-27T01:46:41.329Z,30.83
2022-09-27T01:49:12.913Z,37.20
2022-09-27T01:51:44.529Z,43.55
2022-09-27T01:56:45.329Z,29.02
2022-09-27T01:59:16.982Z,32.10
2022-09-27T02:01:49.067Z,33.53
2022-09-27T02:04:22.286Z,31.92
2022-09-27T02:06:54.535Z,33.10
2022-09-27T02:09:26.389Z,29.90
2022-09-27T02:11:58.679Z,30.73
2022-09-27T02:14:30.455Z,38.38
2022-09-27T02:17:01.656Z,32.72
2022-09-27T02:19:37.497Z,39.20
2022-09-27T02:22:12.201Z,37.22
2022-09-27T02:24:43.793Z,35.00
2022-09-27T02:27:14.836Z,35.30
2022-09-27T02:29:47.371Z,39.42
2022-09-27T02:32:18.874Z,36.60
2022-09-27T02:34:48.303Z,33.33
2022-09-27T02:37:16.423Z,31.30
2022-09-27T02:39:45.069Z,34.58
2022-09-27T02:42:14.024Z,30.48
2022-09-27T02:44:42.834Z,30.17
2022-09-27T02:47:37.928Z,25.95
2022-09-27T02:50:26.247Z,36.92
2022-09-27T02:53:01.505Z,28.35
2022-09-27T02:55:40.122Z,29.10
2022-09-27T02:58:14.370Z,32.45
2022-09-27T03:00:47.465Z,29.13
2022-09-27T03:03:19.861Z,26.65
2022-09-27T03:05:53.769Z,28.77
2022-09-27T03:08:22.644Z,32.50
2022-09-27T03:10:51.039Z,28.95
2022-09-27T03:13:19.235Z,27.85
2022-09-27T03:15:48.272Z,31.98
2022-09-27T03:18:16.498Z,29.17
2022-09-27T03:20:44.653Z,30.42
2022-09-27T03:23:14.491Z,30.05
2022-09-27T03:25:42.818Z,28.80
2022-09-27T03:28:10.862Z,33.15
2022-09-27T03:30:39.419Z,25.35
2022-09-27T03:33:09.275Z,27.25
2022-09-27T03:35:38.011Z,28.88
2022-09-27T03:38:07.537Z,26.27
2022-09-27T03:40:37.194Z,25.92
2022-09-27T03:43:05.335Z,29.48
2022-09-27T03:45:33.689Z,23.48
2022-09-27T03:48:02.554Z,23.90
2022-09-27T03:50:30.672Z,23.60
2022-09-27T03:52:59.038Z,23.67
2022-09-27T03:55:27.265Z,24.45
2022-09-27T03:57:56.669Z,22.63
2022-09-27T04:00:32.844Z,23.55
2022-09-27T04:03:01.149Z,22.92
2022-09-27T04:05:30.537Z,21.77
2022-09-27T04:07:59.007Z,23.00
2022-09-27T04:10:27.344Z,23.80
2022-09-27T04:12:57.444Z,24.75
2022-09-27T04:15:25.559Z,20.88
2022-09-27T04:17:53.782Z,21.27
2022-09-27T04:20:22.192Z,20.17
2022-09-27T04:22:52.174Z,18.45
2022-09-27T04:25:20.355Z,18.48
2022-09-27T04:27:52.111Z,18.35
2022-09-27T04:30:22.273Z,18.08
2022-09-27T04:32:50.593Z,15.60
2022-09-27T04:35:36.865Z,22.08
2022-09-27T04:38:05.207Z,18.73
2022-09-27T04:40:35.654Z,16.42
2022-09-27T04:43:04.570Z,17.55
2022-09-27T04:45:34.676Z,17.40
2022-09-27T04:48:03.165Z,19.83
2022-09-27T04:50:35.831Z,22.10
2022-09-27T04:53:05.050Z,17.65
2022-09-27T04:55:33.326Z,18.35
2022-09-27T04:58:02.087Z,17.73
2022-09-27T05:00:30.448Z,19.75
2022-09-27T05:03:00.150Z,20.17
2022-09-27T05:05:28.219Z,17.08
2022-09-27T05:07:56.590Z,16.23
2022-09-27T05:10:24.785Z,16.33
2022-09-27T05:12:52.901Z,19.40
2022-09-27T05:15:21.122Z,16.70
2022-09-27T05:17:52.270Z,14.85
2022-09-27T05:20:21.781Z,15.60
2022-09-27T05:22:50.411Z,17.27
2022-09-27T05:25:19.130Z,15.98
2022-09-27T05:27:47.862Z,14.93
2022-09-27T05:30:16.335Z,15.05
2022-09-27T05:32:46.828Z,13.05
2022-09-27T05:35:15.042Z,13.48
2022-09-27T05:37:45.164Z,13.20
2022-09-27T05:40:36.497Z,12.85
2022-09-27T05:43:01.486Z,13.60
2022-09-27T05:45:29.616Z,13.93
2022-09-27T05:47:58.807Z,13.52
2022-09-27T05:50:28.231Z,11.93
2022-09-27T05:52:57.961Z,14.05
2022-09-27T05:55:26.132Z,12.82
2022-09-27T05:57:58.231Z,12.73
2022-09-27T06:00:27.143Z,13.27
2022-09-27T06:02:57.244Z,11.68
2022-09-27T06:05:26.527Z,12.88
2022-09-27T06:08:01.443Z,18.88
2022-09-27T06:10:30.868Z,14.98
2022-09-27T06:13:02.596Z,11.85
2022-09-27T06:15:32.341Z,12.75
2022-09-27T06:18:05.157Z,11.18
2022-09-27T06:20:33.895Z,14.02
2022-09-27T06:23:08.707Z,10.35
2022-09-27T06:25:37.579Z,11.73
2022-09-27T06:28:06.653Z,11.43
2022-09-27T06:30:35.249Z,8.38
2022-09-27T06:33:04.486Z,9.02
2022-09-27T06:35:33.257Z,10.73
2022-09-27T06:38:04.913Z,10.57
2022-09-27T06:40:35.477Z,13.10
2022-09-27T06:43:04.886Z,11.18
2022-09-27T06:45:34.354Z,10.57
2022-09-27T06:48:03.423Z,11.10
2022-09-27T06:50:32.918Z,10.40
2022-09-27T06:53:01.264Z,11.48
2022-09-27T06:55:29.839Z,14.73
2022-09-27T06:58:18.449Z,12.88
2022-09-27T07:00:47.977Z,11.75
2022-09-27T07:03:16.487Z,10.48
2022-09-27T07:05:45.016Z,11.00
2022-09-27T07:08:15.580Z,11.32
2022-09-27T07:10:43.981Z,11.32
2022-09-27T07:13:13.688Z,11.25
2022-09-27T07:15:43.248Z,12.00
2022-09-27T07:18:12.098Z,14.82
2022-09-27T07:20:40.435Z,10.48
2022-09-27T07:23:11.357Z,8.60
2022-09-27T07:25:40.614Z,7.22
2022-09-27T07:28:11.849Z,13.55
2022-09-27T07:30:41.715Z,8.20
2022-09-27T07:33:10.259Z,7.82
2022-09-27T07:35:41.154Z,9.70
2022-09-27T07:38:12.418Z,6.95
2022-09-27T07:40:41.716Z,8.73
2022-09-27T07:43:12.656Z,7.30
2022-09-27T07:45:42.565Z,9.43
2022-09-27T07:48:15.337Z,12.00
2022-09-27T07:50:44.547Z,8.43
2022-09-27T07:53:14.365Z,9.43
2022-09-27T07:55:43.051Z,6.18
2022-09-27T07:58:13.912Z,9.02
2022-09-27T08:00:44.415Z,8.73
2022-09-27T08:03:17.251Z,6.95
2022-09-27T08:05:50.052Z,8.02
2022-09-27T08:08:19.226Z,8.40
2022-09-27T08:10:48.056Z,6.25
2022-09-27T08:13:18.160Z,5.60
2022-09-27T08:15:48.868Z,5.93
2022-09-27T08:18:17.778Z,14.03
2022-09-27T08:20:47.185Z,74.10
2022-09-27T08:23:15.603Z,7.75
2022-09-27T08:25:44.156Z,6.18
2022-09-27T08:28:12.489Z,5.78
2022-09-27T08:30:41.038Z,7.90
2022-09-27T08:33:11.310Z,4.88
2022-09-27T08:35:39.609Z,5.03
2022-09-27T08:38:08.039Z,5.82
2022-09-27T08:40:47.178Z,7.13
2022-09-27T08:43:21.868Z,5.70
2022-09-27T08:46:00.341Z,5.82
2022-09-27T08:48:31.265Z,4.70
2022-09-27T08:51:00.122Z,7.35
2022-09-27T08:53:32.026Z,10.00
2022-09-27T08:56:04.037Z,7.32
2022-09-27T08:58:33.870Z,7.80
2022-09-27T09:01:03.786Z,6.65
2022-09-27T09:03:36.563Z,6.75
2022-09-27T09:06:12.460Z,7.35
2022-09-27T09:08:50.701Z,7.47
2022-09-27T09:11:46.499Z,6.03
2022-09-27T09:14:30.341Z,6.43
2022-09-27T09:17:07.056Z,6.40
2022-09-27T09:19:47.645Z,7.10
2022-09-27T09:22:29.822Z,5.00
2022-09-27T09:25:09.277Z,6.35
2022-09-27T09:27:42.563Z,5.82
2022-09-27T09:30:21.391Z,4.57
2022-09-27T09:33:01.670Z,5.68
2022-09-27T09:35:35.828Z,4.78
2022-09-27T09:38:10.545Z,5.47
2022-09-27T09:40:42.536Z,4.38
2022-09-27T09:43:17.483Z,3.55
2022-09-27T09:45:48.582Z,4.55
2022-09-27T09:50:49.788Z,7.07
2022-09-27T09:53:20.637Z,5.63
2022-09-27T09:55:53.915Z,5.32
2022-09-27T09:58:25.879Z,4.55
2022-09-27T10:00:57.520Z,3.83
2022-09-27T10:03:25.874Z,5.40
2022-09-27T10:05:56.807Z,5.60
2022-09-27T10:08:25.755Z,6.15
2022-09-27T10:10:54.144Z,5.07
2022-09-27T10:13:23.288Z,7.20
2022-09-27T10:15:56.771Z,7.63
2022-09-27T10:18:26.567Z,7.10
2022-09-27T10:20:58.592Z,3.97
2022-09-27T10:23:27.218Z,4.97
2022-09-27T10:25:56.827Z,6.15
2022-09-27T10:28:34.339Z,6.53
2022-09-27T10:31:04.724Z,5.50
2022-09-27T10:33:33.717Z,6.88
2022-09-27T10:36:04.035Z,5.72
2022-09-27T10:38:34.247Z,3.97
2022-09-27T10:41:18.719Z,4.10
2022-09-27T10:43:47.104Z,5.75
2022-09-27T10:46:22.149Z,5.97
2022-09-27T10:48:52.097Z,3.38
2022-09-27T10:51:26.991Z,3.65
2022-09-27T10:53:58.861Z,4.82
2022-09-27T10:56:30.333Z,3.25
2022-09-27T10:59:00.145Z,2.95
2022-09-27T11:01:29.079Z,4.93
2022-09-27T11:03:59.864Z,10.25
2022-09-27T11:06:38.111Z,5.90
2022-09-27T11:09:20.139Z,4.47
2022-09-27T11:11:48.507Z,3.63
2022-09-27T11:14:24.309Z,3.90
2022-09-27T11:17:09.950Z,4.32
2022-09-27T11:20:09.984Z,6.80
2022-09-27T11:23:00.385Z,5.00
2022-09-27T11:25:35.300Z,7.80
2022-09-27T11:28:08.141Z,5.53
2022-09-27T11:30:41.118Z,4.60
2022-09-27T11:33:22.437Z,3.58
2022-09-27T11:35:57.344Z,4.22
2022-09-27T11:38:52.067Z,4.97
2022-09-27T11:41:37.594Z,3.92
2022-09-27T11:44:22.983Z,4.60
2022-09-27T11:46:54.679Z,4.38
2022-09-27T11:49:41.565Z,3.42
2022-09-27T11:52:19.855Z,5.53
2022-09-27T11:55:01.617Z,6.13
2022-09-27T11:57:34.569Z,4.53
2022-09-27T12:00:18.056Z,5.07
2022-09-27T12:03:21.980Z,5.43
2022-09-27T12:06:06.359Z,3.33
2022-09-27T12:08:54.894Z,4.38
2022-09-27T12:11:28.245Z,4.45
2022-09-27T12:13:58.818Z,5.78
2022-09-27T12:16:27.728Z,6.70
2022-09-27T12:18:56.124Z,4.60
2022-09-27T12:21:25.963Z,6.68
2022-09-27T12:23:57.897Z,5.32
2022-09-27T12:26:32.209Z,5.45
2022-09-27T12:29:04.219Z,6.05
2022-09-27T12:31:36.026Z,3.58
2022-09-27T12:34:17.427Z,4.18
2022-09-27T12:36:51.058Z,9.30
2022-09-27T12:39:22.525Z,3.47
2022-09-27T12:41:56.588Z,7.78
2022-09-27T12:44:24.694Z,3.38
2022-09-27T12:47:01.860Z,3.28
2022-09-27T12:49:39.745Z,3.50
2022-09-27T12:52:12.084Z,5.90
2022-09-27T12:55:05.321Z,5.45
2022-09-27T12:57:42.602Z,4.47
2022-09-27T13:00:14.984Z,4.05
2022-09-27T13:03:15.863Z,6.28
2022-09-27T13:06:20.739Z,9.32
2022-09-27T13:09:25.446Z,10.10
2022-09-27T13:12:01.489Z,13.50
2022-09-27T13:14:34.631Z,10.52
2022-09-27T13:17:02.952Z,6.13
2022-09-27T13:19:45.591Z,6.20
2022-09-27T13:22:37.588Z,5.07
2022-09-27T13:25:54.348Z,6.43
2022-09-27T13:28:35.610Z,6.95
2022-09-27T13:31:06.914Z,7.18
2022-09-27T13:33:43.376Z,6.97
2022-09-27T13:36:21.812Z,6.85
2022-09-27T13:39:20.034Z,7.78
2022-09-27T13:42:08.525Z,7.63
2022-09-27T13:44:48.122Z,8.98
2022-09-27T13:47:26.698Z,9.23
2022-09-27T13:49:59.385Z,7.63
2022-09-27T13:52:33.780Z,9.77
2022-09-27T13:55:03.341Z,9.00
2022-09-27T13:57:48.739Z,8.98
2022-09-27T14:00:20.077Z,10.52
2022-09-27T14:02:58.038Z,8.93
2022-09-27T14:05:29.795Z,9.85
2022-09-27T14:08:02.433Z,10.10
2022-09-27T14:10:30.867Z,9.80
2022-09-27T14:13:01.445Z,10.00
2022-09-27T14:15:30.863Z,9.98
2022-09-27T14:18:00.804Z,11.48
2022-09-27T14:20:40.969Z,9.23
2022-09-27T14:23:17.506Z,8.93
2022-09-27T14:25:47.285Z,10.70
2022-09-27T14:28:22.616Z,8.48
2022-09-27T14:31:06.509Z,6.05
2022-09-27T14:33:37.016Z,6.15
2022-09-27T14:36:25.706Z,4.13
2022-09-27T14:38:53.953Z,3.75
2022-09-27T14:41:22.431Z,6.47
2022-09-27T14:43:51.266Z,5.25
2022-09-27T14:46:27.862Z,4.68
2022-09-27T14:48:59.385Z,4.90
2022-09-27T14:51:30.223Z,5.75
2022-09-27T14:54:01.453Z,3.00
2022-09-27T14:56:32.452Z,4.25
2022-09-27T14:59:04.891Z,5.50
2022-09-27T15:01:35.187Z,5.35
2022-09-27T15:04:13.009Z,4.55
2022-09-27T15:06:41.392Z,5.32
2022-09-27T15:09:14.449Z,3.58
2022-09-27T15:11:43.320Z,6.03
2022-09-27T15:14:14.738Z,3.70
2022-09-27T15:16:43.240Z,9.05
2022-09-27T15:19:19.136Z,4.07
2022-09-27T15:21:47.588Z,4.63
2022-09-27T15:24:37.365Z,4.22
2022-09-27T15:27:08.604Z,4.68
2022-09-27T15:29:37.071Z,3.95
2022-09-27T15:32:06.818Z,4.97
2022-09-27T15:34:37.497Z,4.20
2022-09-27T15:37:06.484Z,3.97
2022-09-27T15:39:36.148Z,59.72
2022-09-27T15:42:07.140Z,11.73
2022-09-27T15:44:41.180Z,10.02
2022-09-27T15:47:40.227Z,9.75
2022-09-27T15:50:36.007Z,8.00
2022-09-27T15:53:07.061Z,10.85
2022-09-27T15:55:37.807Z,10.05
2022-09-27T15:58:08.375Z,13.55
2022-09-27T16:00:37.253Z,11.52
2022-09-27T16:03:05.714Z,9.82
2022-09-27T16:05:35.619Z,16.30
2022-09-27T16:08:04.435Z,15.63
2022-09-27T16:10:37.935Z,8.98
2022-09-27T16:13:06.448Z,11.98
2022-09-27T16:15:34.767Z,13.55
2022-09-27T16:18:03.331Z,14.00
2022-09-27T16:20:32.612Z,11.65
2022-09-27T16:23:02.855Z,14.55
2022-09-27T16:25:31.106Z,14.52
2022-09-27T16:27:59.965Z,17.05
2022-09-27T16:30:28.657Z,18.52
2022-09-27T16:32:57.187Z,17.80
2022-09-27T16:35:26.671Z,31.15
2022-09-27T16:37:54.930Z,33.42
2022-09-27T16:40:26.754Z,18.42
2022-09-27T16:42:55.230Z,30.05
2022-09-27T16:45:23.431Z,23.77
2022-09-27T16:47:51.632Z,20.42
2022-09-27T16:50:37.470Z,27.55
2022-09-27T16:53:06.188Z,27.98
2022-09-27T16:55:36.863Z,24.30
2022-09-27T16:58:05.774Z,28.57
2022-09-27T17:00:34.350Z,28.60
2022-09-27T17:03:02.776Z,27.17
2022-09-27T17:05:32.069Z,22.48
2022-09-27T17:08:00.152Z,24.83
2022-09-27T17:10:28.791Z,23.30
2022-09-27T17:12:58.539Z,24.15
2022-09-27T17:15:27.055Z,21.88
2022-09-27T17:17:55.408Z,22.77
2022-09-27T17:20:23.580Z,22.88
2022-09-27T17:22:51.815Z,23.33
2022-09-27T17:25:20.389Z,25.17
2022-09-27T17:27:49.368Z,21.75
2022-09-27T17:30:21.391Z,24.60
2022-09-27T17:32:49.892Z,27.88
2022-09-27T17:35:18.250Z,25.27
2022-09-27T17:37:46.444Z,27.92
2022-09-27T17:40:16.313Z,24.42
2022-09-27T17:42:44.824Z,25.08
2022-09-27T17:45:12.992Z,24.83
2022-09-27T17:48:00.320Z,26.17
2022-09-27T17:50:29.033Z,25.63
2022-09-27T17:52:58.818Z,22.58
2022-09-27T17:55:27.658Z,21.60
2022-09-27T17:57:56.371Z,21.27
2022-09-27T18:00:24.743Z,23.83
2022-09-27T18:02:54.372Z,24.98
2022-09-27T18:05:22.631Z,22.80
2022-09-27T18:07:51.334Z,26.98
2022-09-27T18:10:20.061Z,26.00
2022-09-27T18:12:48.576Z,22.67
2022-09-27T18:15:21.895Z,19.35
2022-09-27T18:17:57.214Z,27.77
2022-09-27T18:20:27.712Z,22.55
2022-09-27T18:22:56.584Z,24.95
2022-09-27T18:25:25.409Z,26.33
2022-09-27T18:27:55.822Z,24.90
2022-09-27T18:30:25.289Z,26.25
2022-09-27T18:32:54.458Z,24.73
2022-09-27T18:35:24.511Z,26.25
2022-09-27T18:37:54.799Z,25.30
2022-09-27T18:40:38.354Z,23.80
2022-09-27T18:43:11.989Z,25.77
2022-09-27T18:45:40.487Z,23.60
2022-09-27T18:48:08.811Z,21.67
2022-09-27T18:50:37.745Z,23.13
2022-09-27T18:53:09.167Z,21.02
2022-09-27T18:55:38.625Z,21.05
2022-09-27T18:58:07.515Z,23.55
2022-09-27T19:00:35.889Z,18.35
2022-09-27T19:03:04.404Z,19.95
2022-09-27T19:05:32.782Z,20.08
2022-09-27T19:08:01.023Z,20.55
2022-09-27T19:10:30.644Z,20.48
2022-09-27T19:13:01.299Z,21.35
2022-09-27T19:15:29.674Z,20.25
2022-09-27T19:17:57.922Z,17.08
2022-09-27T19:20:26.397Z,15.73
2022-09-27T19:22:54.444Z,18.45
2022-09-27T19:25:22.645Z,19.23
2022-09-27T19:27:52.962Z,17.48
2022-09-27T19:30:21.202Z,17.33
2022-09-27T19:32:49.356Z,16.92
2022-09-27T19:35:18.318Z,16.50
2022-09-27T19:37:46.418Z,17.13
2022-09-27T19:40:14.695Z,14.57
2022-09-27T19:42:43.037Z,18.50
2022-09-27T19:45:13.180Z,15.23
2022-09-27T19:47:41.377Z,14.85
2022-09-27T19:50:10.649Z,14.55
2022-09-27T19:52:39.243Z,16.55
2022-09-27T19:55:08.735Z,14.75
2022-09-27T19:57:37.263Z,14.00
2022-09-27T20:00:06.567Z,16.08
2022-09-27T20:02:36.377Z,14.15
2022-09-27T20:05:05.186Z,13.60
2022-09-27T20:07:35.126Z,14.18
2022-09-27T20:10:04.486Z,14.35
2022-09-27T20:12:32.599Z,16.42
2022-09-27T20:15:00.731Z,11.95
2022-09-27T20:17:33.624Z,12.88
2022-09-27T20:20:03.165Z,13.48
2022-09-27T20:22:31.551Z,15.18
2022-09-27T20:24:59.743Z,14.23
2022-09-27T20:27:27.966Z,13.85
2022-09-27T20:29:57.335Z,14.82
2022-09-27T20:32:29.888Z,14.27
2022-09-27T20:34:58.614Z,16.85
2022-09-27T20:37:28.431Z,15.00
2022-09-27T20:39:56.780Z,16.98
2022-09-27T20:42:25.046Z,15.05
2022-09-27T20:44:54.506Z,13.63
2022-09-27T20:47:23.203Z,14.38
2022-09-27T20:49:51.622Z,13.63
2022-09-27T20:52:19.796Z,12.93
2022-09-27T20:54:49.349Z,13.90
2022-09-27T20:57:27.745Z,17.60
2022-09-27T21:00:03.621Z,14.90
2022-09-27T21:02:32.287Z,16.73
2022-09-27T21:05:00.344Z,15.35
2022-09-27T21:07:28.578Z,17.85
2022-09-27T21:09:58.333Z,15.88
2022-09-27T21:12:26.601Z,16.02
2022-09-27T21:14:54.646Z,15.82
2022-09-27T21:17:24.041Z,15.88
2022-09-27T21:19:52.786Z,19.05
2022-09-27T21:22:21.082Z,15.30
2022-09-27T21:24:49.314Z,16.20
2022-09-27T21:27:18.818Z,17.00
2022-09-27T21:29:47.091Z,16.20
2022-09-27T21:32:15.514Z,17.92
2022-09-27T21:34:43.648Z,18.13
2022-09-27T21:37:11.820Z,18.77
2022-09-27T21:39:40.417Z,17.40
2022-09-27T21:42:08.448Z,15.27
2022-09-27T21:44:37.966Z,15.30
2022-09-27T21:47:06.563Z,18.23
2022-09-27T21:49:35.858Z,22.70
2022-09-27T21:52:04.136Z,15.13
2022-09-27T21:54:32.765Z,15.15
2022-09-27T21:57:02.202Z,16.92
2022-09-27T21:59:30.393Z,18.60
2022-09-27T22:02:00.174Z,17.73
2022-09-27T22:04:28.427Z,16.02
2022-09-27T22:06:56.482Z,16.63
2022-09-27T22:09:24.845Z,16.67
2022-09-27T22:11:53.043Z,15.95
2022-09-27T22:14:21.146Z,18.52
2022-09-27T22:16:49.628Z,18.10
2022-09-27T22:19:19.436Z,16.88
2022-09-27T22:21:47.646Z,19.15
2022-09-27T22:24:17.728Z,18.73
2022-09-27T22:26:48.311Z,15.57
2022-09-27T22:29:17.131Z,16.95
2022-09-27T22:31:45.577Z,17.55
2022-09-27T22:34:18.732Z,15.50
2022-09-27T22:36:48.876Z,13.75
2022-09-27T22:39:17.009Z,15.00
2022-09-27T22:41:45.324Z,14.05
2022-09-27T22:44:13.696Z,14.57
2022-09-27T22:46:41.952Z,15.48
2022-09-27T22:49:10.200Z,17.10
2022-09-27T22:51:38.530Z,16.27
2022-09-27T22:54:08.193Z,19.05
2022-09-27T22:56:36.346Z,15.52
2022-09-27T22:59:04.652Z,17.42
2022-09-27T23:01:32.804Z,17.75
2022-09-27T23:04:00.915Z,14.90
2022-09-27T23:06:29.376Z,14.27
2022-09-27T23:08:58.238Z,14.90
2022-09-27T23:11:27.968Z,15.88
2022-09-27T23:13:56.571Z,17.48
2022-09-27T23:16:25.479Z,18.75
2022-09-27T23:18:54.608Z,18.48
2022-09-27T23:21:26.008Z,16.77
2022-09-27T23:26:26.380Z,16.92
2022-09-27T23:28:56.402Z,16.10
2022-09-27T23:31:25.266Z,15.25
2022-09-27T23:33:54.672Z,17.10
2022-09-27T23:36:25.711Z,17.42
2022-09-27T23:38:55.309Z,19.35
2022-09-27T23:41:23.572Z,19.70
2022-09-27T23:43:51.742Z,19.35
2022-09-27T23:46:21.865Z,20.25
2022-09-27T23:48:49.959Z,17.38
2022-09-27T23:51:20.488Z,19.77
2022-09-27T23:53:48.509Z,20.35
2022-09-27T23:56:17.524Z,16.88
2022-09-27T23:58:46.900Z,20.25
